createdAt,value
2023-04-20T00:00:24.752Z,0.00
2023-04-20T00:01:24.713Z,0.00
2023-04-20T00:02:25.837Z,0.00
2023-04-20T00:03:24.877Z,0.00
2023-04-20T00:04:24.720Z,0.00
2023-04-20T00:05:24.726Z,0.00
2023-04-20T00:06:24.669Z,0.00
2023-04-20T00:07:24.686Z,0.00
2023-04-20T00:08:24.646Z,0.00
2023-04-20T00:09:24.633Z,0.00
2023-04-20T00:10:24.637Z,0.00
2023-04-20T00:11:24.602Z,0.00
2023-04-20T00:12:24.655Z,0.00
2023-04-20T00:13:24.584Z,0.00
2023-04-20T00:14:24.577Z,0.00
2023-04-20T00:15:24.596Z,0.00
2023-04-20T00:16:24.595Z,0.00
2023-04-20T00:17:24.591Z,0.00
2023-04-20T00:18:24.569Z,0.00
2023-04-20T00:19:24.569Z,0.00
2023-04-20T00:20:24.525Z,0.00
2023-04-20T00:21:24.485Z,0.00
2023-04-20T00:22:24.513Z,0.00
2023-04-20T00:23:24.476Z,0.00
2023-04-20T00:24:24.466Z,0.00
2023-04-20T00:25:24.445Z,0.00
2023-04-20T00:26:24.440Z,0.00
2023-04-20T00:27:24.463Z,0.00
2023-04-20T00:28:24.428Z,0.00
2023-04-20T00:29:24.407Z,0.00
2023-04-20T00:30:24.521Z,0.00
2023-04-20T00:31:24.445Z,0.00
2023-04-20T00:32:24.506Z,0.00
2023-04-20T00:33:24.365Z,0.00
2023-04-20T00:34:24.336Z,0.00
2023-04-20T00:35:24.340Z,0.00
2023-04-20T00:36:24.322Z,0.00
2023-04-20T00:37:24.365Z,0.00
2023-04-20T00:38:24.305Z,0.00
2023-04-20T00:39:24.287Z,0.00
2023-04-20T00:40:24.280Z,0.00
2023-04-20T00:41:24.272Z,0.00
2023-04-20T00:42:24.268Z,0.00
2023-04-20T00:43:24.274Z,0.00
2023-04-20T00:44:24.221Z,0.00
2023-04-20T00:45:24.224Z,0.00
2023-04-20T00:46:24.244Z,0.00
2023-04-20T00:47:25.216Z,0.00
2023-04-20T00:48:24.216Z,0.00
2023-04-20T00:49:24.175Z,0.00
2023-04-20T00:50:24.171Z,0.00
2023-04-20T00:51:24.161Z,0.00
2023-04-20T00:52:24.136Z,0.00
2023-04-20T00:53:25.143Z,0.00
2023-04-20T00:54:24.116Z,0.00
2023-04-20T00:55:24.140Z,0.00
2023-04-20T00:56:24.099Z,0.00
2023-04-20T00:57:24.249Z,0.00
2023-04-20T00:58:24.110Z,0.00
2023-04-20T00:59:24.077Z,0.00
2023-04-20T01:00:24.066Z,0.00
2023-04-20T01:01:24.063Z,0.00
2023-04-20T01:02:24.107Z,0.00
2023-04-20T01:03:24.171Z,0.00
2023-04-20T01:04:24.132Z,0.00
2023-04-20T01:05:23.992Z,0.00
2023-04-20T01:06:23.984Z,0.00
2023-04-20T01:07:23.980Z,0.00
2023-04-20T01:08:23.990Z,0.00
2023-04-20T01:09:23.954Z,0.00
2023-04-20T01:10:23.962Z,0.00
2023-04-20T01:11:23.935Z,0.00
2023-04-20T01:12:23.917Z,0.00
2023-04-20T01:13:23.937Z,0.00
2023-04-20T01:14:23.897Z,0.00
2023-04-20T01:15:23.872Z,0.00
2023-04-20T01:16:24.918Z,0.00
2023-04-20T01:17:23.892Z,0.00
2023-04-20T01:18:23.865Z,0.00
2023-04-20T01:19:24.836Z,0.00
2023-04-20T01:20:23.883Z,0.00
2023-04-20T01:21:23.840Z,0.00
2023-04-20T01:22:23.820Z,0.00
2023-04-20T01:23:23.809Z,0.00
2023-04-20T01:24:23.791Z,0.00
2023-04-20T01:25:23.791Z,0.00
2023-04-20T01:26:23.755Z,0.00
2023-04-20T01:27:23.784Z,0.00
2023-04-20T01:28:23.772Z,0.00
2023-04-20T01:29:23.746Z,0.00
2023-04-20T01:30:23.733Z,0.00
2023-04-20T01:31:23.718Z,0.00
2023-04-20T01:32:23.776Z,0.00
2023-04-20T01:33:23.704Z,0.00
2023-04-20T01:34:23.666Z,0.00
2023-04-20T01:35:23.672Z,0.00
2023-04-20T01:36:23.659Z,0.00
2023-04-20T01:37:23.644Z,0.00
2023-04-20T01:38:23.643Z,0.00
2023-04-20T01:39:23.662Z,0.00
2023-04-20T01:40:23.603Z,0.00
2023-04-20T01:41:23.600Z,0.00
2023-04-20T01:42:23.574Z,0.00
2023-04-20T01:43:23.581Z,0.00
2023-04-20T01:44:23.568Z,0.00
2023-04-20T01:45:23.538Z,0.00
2023-04-20T01:46:23.593Z,0.00
2023-04-20T01:47:23.532Z,0.00
2023-04-20T01:48:23.526Z,0.00
2023-04-20T01:49:23.492Z,0.00
2023-04-20T01:50:23.486Z,0.00
2023-04-20T01:51:23.480Z,0.00
2023-04-20T01:52:23.463Z,0.00
2023-04-20T01:53:23.465Z,0.00
2023-04-20T01:54:23.443Z,0.00
2023-04-20T01:55:23.427Z,0.00
2023-04-20T01:56:23.407Z,0.00
2023-04-20T01:57:23.400Z,0.00
2023-04-20T01:58:23.429Z,0.00
2023-04-20T01:59:23.387Z,0.00
2023-04-20T02:00:23.365Z,0.00
2023-04-20T02:01:23.533Z,0.00
2023-04-20T02:02:23.464Z,0.00
2023-04-20T02:03:23.551Z,0.00
2023-04-20T02:04:23.327Z,0.00
2023-04-20T02:05:23.316Z,0.00
2023-04-20T02:06:23.303Z,0.00
2023-04-20T02:07:23.291Z,0.00
2023-04-20T02:08:23.300Z,0.00
2023-04-20T02:09:23.270Z,0.00
2023-04-20T02:10:23.282Z,0.00
2023-04-20T02:11:23.241Z,0.00
2023-04-20T02:12:23.229Z,0.00
2023-04-20T02:13:23.240Z,0.00
2023-04-20T02:14:23.213Z,0.00
2023-04-20T02:15:23.207Z,0.00
2023-04-20T02:16:23.191Z,0.00
2023-04-20T02:17:23.276Z,0.00
2023-04-20T02:18:23.189Z,0.00
2023-04-20T02:19:23.170Z,0.00
2023-04-20T02:20:23.156Z,0.00
2023-04-20T02:21:23.121Z,0.00
2023-04-20T02:22:23.111Z,0.00
2023-04-20T02:23:23.142Z,0.00
2023-04-20T02:24:23.097Z,0.00
2023-04-20T02:25:23.085Z,0.00
2023-04-20T02:26:23.075Z,0.00
2023-04-20T02:27:23.055Z,0.00
2023-04-20T02:28:23.058Z,0.00
2023-04-20T02:29:23.037Z,0.00
2023-04-20T02:30:23.054Z,0.00
2023-04-20T02:31:23.047Z,0.00
2023-04-20T02:32:23.067Z,0.00
2023-04-20T02:33:23.062Z,0.00
2023-04-20T02:34:22.978Z,0.00
2023-04-20T02:35:22.972Z,0.00
2023-04-20T02:36:22.952Z,0.00
2023-04-20T02:37:22.951Z,0.00
2023-04-20T02:38:22.962Z,0.00
2023-04-20T02:39:22.915Z,0.00
2023-04-20T02:40:22.914Z,0.00
2023-04-20T02:41:22.909Z,0.00
2023-04-20T02:42:22.896Z,0.00
2023-04-20T02:43:22.926Z,0.00
2023-04-20T02:44:22.868Z,0.00
2023-04-20T02:45:22.855Z,0.00
2023-04-20T02:46:22.893Z,0.00
2023-04-20T02:47:22.868Z,0.00
2023-04-20T02:48:22.853Z,0.00
2023-04-20T02:49:22.814Z,0.00
2023-04-20T02:50:22.804Z,0.00
2023-04-20T02:51:22.798Z,0.00
2023-04-20T02:52:22.784Z,0.00
2023-04-20T02:53:22.808Z,0.00
2023-04-20T02:54:22.756Z,0.00
2023-04-20T02:55:22.755Z,0.00
2023-04-20T02:56:22.742Z,0.00
2023-04-20T02:57:22.729Z,0.00
2023-04-20T02:58:22.735Z,0.00
2023-04-20T02:59:22.713Z,0.00
2023-04-20T03:00:22.697Z,0.00
2023-04-20T03:01:22.780Z,0.00
2023-04-20T03:02:22.877Z,0.00
2023-04-20T03:03:23.867Z,0.00
2023-04-20T03:04:22.773Z,0.00
2023-04-20T03:05:22.656Z,0.00
2023-04-20T03:06:22.635Z,0.00
2023-04-20T03:07:22.668Z,0.00
2023-04-20T03:08:22.626Z,0.00
2023-04-20T03:09:22.597Z,0.00
2023-04-20T03:10:22.627Z,0.00
2023-04-20T03:11:22.583Z,0.00
2023-04-20T03:12:22.603Z,0.00
2023-04-20T03:13:22.608Z,0.00
2023-04-20T03:14:22.555Z,0.00
2023-04-20T03:15:22.533Z,0.00
2023-04-20T03:16:22.547Z,0.00
2023-04-20T03:17:22.556Z,0.00
2023-04-20T03:18:22.520Z,0.00
2023-04-20T03:19:22.501Z,0.00
2023-04-20T03:20:22.490Z,0.00
2023-04-20T03:21:22.475Z,0.00
2023-04-20T03:22:22.463Z,0.00
2023-04-20T03:23:22.479Z,0.00
2023-04-20T03:24:22.437Z,0.00
2023-04-20T03:25:22.431Z,0.00
2023-04-20T03:26:22.421Z,0.00
2023-04-20T03:27:22.416Z,0.00
2023-04-20T03:28:22.431Z,0.00
2023-04-20T03:29:22.396Z,0.00
2023-04-20T03:30:22.360Z,0.00
2023-04-20T03:31:22.369Z,0.00
2023-04-20T03:32:23.386Z,0.00
2023-04-20T03:33:22.363Z,0.00
2023-04-20T03:34:22.327Z,0.00
2023-04-20T03:35:22.325Z,0.00
2023-04-20T03:36:22.313Z,0.00
2023-04-20T03:37:22.296Z,0.00
2023-04-20T03:38:23.307Z,0.00
2023-04-20T03:39:22.279Z,0.00
2023-04-20T03:40:22.265Z,0.00
2023-04-20T03:41:22.265Z,0.00
2023-04-20T03:42:22.354Z,0.00
2023-04-20T03:43:22.274Z,0.00
2023-04-20T03:44:22.224Z,0.00
2023-04-20T03:45:22.207Z,0.00
2023-04-20T03:46:23.513Z,0.00
2023-04-20T03:47:23.195Z,0.00
2023-04-20T03:48:22.190Z,0.00
2023-04-20T03:49:22.199Z,0.00
2023-04-20T03:50:22.151Z,0.00
2023-04-20T03:51:22.140Z,0.00
2023-04-20T03:52:22.140Z,0.00
2023-04-20T03:53:22.150Z,0.00
2023-04-20T03:54:22.146Z,0.00
2023-04-20T03:55:22.098Z,4.00
2023-04-20T03:56:22.131Z,4.00
2023-04-20T03:57:22.077Z,0.00
2023-04-20T03:58:22.098Z,4.00
2023-04-20T03:59:22.076Z,4.00
2023-04-20T04:00:22.050Z,4.00
2023-04-20T04:01:22.047Z,4.00
2023-04-20T04:02:22.079Z,4.00
2023-04-20T04:03:22.149Z,4.00
2023-04-20T04:04:22.580Z,8.00
2023-04-20T04:05:22.178Z,4.00
2023-04-20T04:06:21.995Z,8.00
2023-04-20T04:07:21.973Z,12.00
2023-04-20T04:08:21.968Z,8.00
2023-04-20T04:09:22.000Z,12.00
2023-04-20T04:10:21.960Z,16.00
2023-04-20T04:11:21.936Z,16.00
2023-04-20T04:12:21.931Z,24.00
2023-04-20T04:13:21.919Z,28.00
2023-04-20T04:14:21.936Z,28.00
2023-04-20T04:15:21.894Z,24.00
2023-04-20T04:16:21.930Z,24.00
2023-04-20T04:17:21.924Z,32.00
2023-04-20T04:18:21.851Z,32.00
2023-04-20T04:19:21.881Z,36.00
2023-04-20T04:20:21.846Z,40.00
2023-04-20T04:21:21.839Z,44.00
2023-04-20T04:22:21.822Z,52.00
2023-04-20T04:23:21.815Z,60.00
2023-04-20T04:24:21.861Z,72.00
2023-04-20T04:25:21.784Z,80.00
2023-04-20T04:26:21.777Z,84.00
2023-04-20T04:27:21.761Z,84.00
2023-04-20T04:28:21.757Z,88.00
2023-04-20T04:29:21.861Z,88.00
2023-04-20T04:30:21.746Z,96.00
2023-04-20T04:31:21.865Z,104.00
2023-04-20T04:32:21.737Z,108.00
2023-04-20T04:33:21.719Z,112.00
2023-04-20T04:34:21.712Z,116.00
2023-04-20T04:35:21.781Z,124.00
2023-04-20T04:36:21.718Z,128.00
2023-04-20T04:37:21.677Z,144.00
2023-04-20T04:38:21.655Z,156.00
2023-04-20T04:39:21.686Z,176.00
2023-04-20T04:40:21.629Z,192.00
2023-04-20T04:41:21.618Z,208.00
2023-04-20T04:42:21.611Z,232.00
2023-04-20T04:43:21.593Z,264.00
2023-04-20T04:44:21.616Z,300.00
2023-04-20T04:45:21.604Z,332.00
2023-04-20T04:46:21.711Z,372.00
2023-04-20T04:47:21.557Z,412.00
2023-04-20T04:48:21.547Z,448.00
2023-04-20T04:49:21.603Z,476.00
2023-04-20T04:50:21.525Z,488.00
2023-04-20T04:51:21.519Z,496.00
2023-04-20T04:52:21.561Z,516.00
2023-04-20T04:53:21.489Z,556.00
2023-04-20T04:54:21.516Z,624.00
2023-04-20T04:55:21.482Z,700.00
2023-04-20T04:56:21.457Z,772.00
2023-04-20T04:57:21.466Z,808.00
2023-04-20T04:58:21.449Z,856.00
2023-04-20T04:59:21.457Z,880.00
2023-04-20T05:00:21.417Z,948.00
2023-04-20T05:01:21.426Z,1044.00
2023-04-20T05:02:21.507Z,1172.00
2023-04-20T05:03:21.519Z,1276.00
2023-04-20T05:04:21.617Z,1304.00
2023-04-20T05:05:21.380Z,1352.00
2023-04-20T05:06:21.361Z,1376.00
2023-04-20T05:07:21.350Z,1380.00
2023-04-20T05:08:21.325Z,1376.00
2023-04-20T05:09:21.339Z,1312.00
2023-04-20T05:10:21.325Z,1304.00
2023-04-20T05:11:21.300Z,1396.00
2023-04-20T05:12:21.282Z,1464.00
2023-04-20T05:13:21.279Z,1416.00
2023-04-20T05:14:21.312Z,1312.00
2023-04-20T05:15:21.266Z,1228.00
2023-04-20T05:16:21.342Z,1200.00
2023-04-20T05:17:21.255Z,1180.00
2023-04-20T05:18:21.220Z,1192.00
2023-04-20T05:19:21.261Z,1240.00
2023-04-20T05:20:21.198Z,1296.00
2023-04-20T05:21:21.185Z,1304.00
2023-04-20T05:22:21.183Z,1372.00
2023-04-20T05:23:21.181Z,1476.00
2023-04-20T05:24:21.210Z,1564.00
2023-04-20T05:25:21.137Z,1556.00
2023-04-20T05:26:21.135Z,1548.00
2023-04-20T05:27:21.114Z,1640.00
2023-04-20T05:28:21.113Z,1612.00
2023-04-20T05:29:22.122Z,1592.00
2023-04-20T05:30:22.097Z,1640.00
2023-04-20T05:31:22.119Z,1604.00
2023-04-20T05:32:21.146Z,1552.00
2023-04-20T05:33:21.047Z,1432.00
2023-04-20T05:34:21.164Z,1288.00
2023-04-20T05:35:21.021Z,1228.00
2023-04-20T05:36:21.030Z,1240.00
2023-04-20T05:37:21.019Z,1304.00
2023-04-20T05:38:20.992Z,1288.00
2023-04-20T05:39:21.092Z,1212.00
2023-04-20T05:40:20.970Z,1200.00
2023-04-20T05:41:20.964Z,1184.00
2023-04-20T05:42:20.953Z,1224.00
2023-04-20T05:43:20.940Z,1244.00
2023-04-20T05:44:20.956Z,1184.00
2023-04-20T05:45:20.918Z,1172.00
2023-04-20T05:46:20.970Z,1084.00
2023-04-20T05:47:20.913Z,1024.00
2023-04-20T05:48:20.877Z,912.00
2023-04-20T05:49:20.882Z,856.00
2023-04-20T05:50:20.860Z,836.00
2023-04-20T05:51:20.855Z,848.00
2023-04-20T05:52:20.839Z,860.00
2023-04-20T05:53:20.879Z,832.00
2023-04-20T05:54:20.869Z,824.00
2023-04-20T05:55:22.429Z,884.00
2023-04-20T05:56:21.804Z,948.00
2023-04-20T05:57:20.792Z,988.00
2023-04-20T05:58:20.765Z,948.00
2023-04-20T05:59:20.780Z,928.00
2023-04-20T06:00:20.834Z,1020.00
2023-04-20T06:01:20.742Z,1052.00
2023-04-20T06:02:20.794Z,1068.00
2023-04-20T06:03:20.829Z,1088.00
2023-04-20T06:04:21.189Z,1080.00
2023-04-20T06:05:20.748Z,1052.00
2023-04-20T06:06:20.696Z,1108.00
2023-04-20T06:07:20.688Z,1212.00
2023-04-20T06:08:20.665Z,1316.00
2023-04-20T06:09:20.678Z,1392.00
2023-04-20T06:10:20.642Z,1520.00
2023-04-20T06:11:20.665Z,1568.00
2023-04-20T06:12:20.621Z,1572.00
2023-04-20T06:13:20.622Z,1532.00
2023-04-20T06:14:20.636Z,1452.00
2023-04-20T06:15:20.588Z,1416.00
2023-04-20T06:16:20.665Z,1356.00
2023-04-20T06:17:20.570Z,1300.00
2023-04-20T06:18:20.560Z,1276.00
2023-04-20T06:19:20.559Z,1328.00
2023-04-20T06:20:20.529Z,1536.00
2023-04-20T06:21:20.535Z,1848.00
2023-04-20T06:22:20.587Z,1964.00
2023-04-20T06:23:20.494Z,1884.00
2023-04-20T06:24:20.520Z,1756.00
2023-04-20T06:25:20.481Z,1748.00
2023-04-20T06:26:20.463Z,1692.00
2023-04-20T06:27:20.515Z,1508.00
2023-04-20T06:28:20.436Z,1468.00
2023-04-20T06:29:20.462Z,1436.00
2023-04-20T06:30:20.425Z,1344.00
2023-04-20T06:31:20.480Z,1384.00
2023-04-20T06:32:21.432Z,1568.00
2023-04-20T06:33:20.404Z,1708.00
2023-04-20T06:34:20.389Z,1880.00
2023-04-20T06:35:20.356Z,2084.00
2023-04-20T06:36:20.362Z,2224.00
2023-04-20T06:37:20.339Z,2320.00
2023-04-20T06:38:20.324Z,2304.00
2023-04-20T06:39:20.462Z,2252.00
2023-04-20T06:40:20.302Z,2148.00
2023-04-20T06:41:20.298Z,2020.00
2023-04-20T06:42:20.285Z,2056.00
2023-04-20T06:43:20.269Z,2036.00
2023-04-20T06:44:20.315Z,2016.00
2023-04-20T06:45:20.242Z,2040.00
2023-04-20T06:46:20.279Z,2064.00
2023-04-20T06:47:20.255Z,1952.00
2023-04-20T06:48:31.586Z,2020.00
2023-04-20T06:49:22.232Z,2160.00
2023-04-20T06:50:20.179Z,2156.00
2023-04-20T06:51:20.174Z,2188.00
2023-04-20T06:52:20.153Z,2220.00
2023-04-20T06:53:20.156Z,2240.00
2023-04-20T06:54:20.318Z,2324.00
2023-04-20T06:55:20.120Z,2420.00
2023-04-20T06:56:20.259Z,2444.00
2023-04-20T06:57:20.104Z,2432.00
2023-04-20T06:58:20.090Z,2408.00
2023-04-20T06:59:20.332Z,2368.00
2023-04-20T07:00:20.075Z,2368.00
2023-04-20T07:01:20.101Z,2324.00
2023-04-20T07:02:20.227Z,2384.00
2023-04-20T07:03:20.237Z,2540.00
2023-04-20T07:04:20.139Z,2680.00
2023-04-20T07:05:20.045Z,2868.00
2023-04-20T07:06:19.999Z,2960.00
2023-04-20T07:07:19.998Z,3008.00
2023-04-20T07:08:19.984Z,3120.00
2023-04-20T07:09:20.137Z,3012.00
2023-04-20T07:10:20.045Z,2760.00
2023-04-20T07:11:19.960Z,2756.00
2023-04-20T07:12:19.946Z,2652.00
2023-04-20T07:13:19.926Z,2624.00
2023-04-20T07:14:19.965Z,2748.00
2023-04-20T07:15:19.911Z,2804.00
2023-04-20T07:16:19.910Z,2724.00
2023-04-20T07:17:19.899Z,2752.00
2023-04-20T07:18:19.854Z,2716.00
2023-04-20T07:19:19.977Z,2720.00
2023-04-20T07:20:19.853Z,2856.00
2023-04-20T07:21:19.830Z,2808.00
2023-04-20T07:22:19.817Z,2504.00
2023-04-20T07:23:19.808Z,2436.00
2023-04-20T07:24:19.814Z,2244.00
2023-04-20T07:25:19.783Z,2080.00
2023-04-20T07:26:19.774Z,2180.00
2023-04-20T07:27:19.758Z,2216.00
2023-04-20T07:28:19.754Z,2112.00
2023-04-20T07:29:19.961Z,2184.00
2023-04-20T07:30:19.724Z,2144.00
2023-04-20T07:31:19.765Z,2360.00
2023-04-20T07:32:19.775Z,2492.00
2023-04-20T07:33:19.698Z,2384.00
2023-04-20T07:34:19.893Z,2240.00
2023-04-20T07:35:19.673Z,2412.00
2023-04-20T07:36:19.658Z,2560.00
2023-04-20T07:37:19.658Z,2652.00
2023-04-20T07:38:19.635Z,2644.00
2023-04-20T07:39:19.812Z,2576.00
2023-04-20T07:40:19.628Z,2688.00
2023-04-20T07:41:19.600Z,2928.00
2023-04-20T07:42:19.784Z,2964.00
2023-04-20T07:43:19.586Z,3116.00
2023-04-20T07:44:19.589Z,3172.00
2023-04-20T07:45:19.566Z,3232.00
2023-04-20T07:46:19.651Z,3252.00
2023-04-20T07:47:19.541Z,3096.00
2023-04-20T07:48:19.532Z,3076.00
2023-04-20T07:49:19.723Z,3064.00
2023-04-20T07:50:19.541Z,3112.00
2023-04-20T07:51:19.491Z,3120.00
2023-04-20T07:52:19.500Z,3216.00
2023-04-20T07:53:19.470Z,3528.00
2023-04-20T07:54:19.609Z,3784.00
2023-04-20T07:55:19.448Z,3980.00
2023-04-20T07:56:19.446Z,4148.00
2023-04-20T07:57:19.431Z,4564.00
2023-04-20T07:58:19.454Z,4728.00
2023-04-20T07:59:19.550Z,4856.00
2023-04-20T08:00:19.402Z,4928.00
2023-04-20T08:01:19.391Z,5480.00
2023-04-20T08:02:20.577Z,5996.00
2023-04-20T08:03:19.518Z,5956.00
2023-04-20T08:04:19.645Z,6104.00
2023-04-20T08:05:19.497Z,6200.00
2023-04-20T08:06:19.346Z,5764.00
2023-04-20T08:07:19.329Z,5692.00
2023-04-20T08:08:19.312Z,5756.00
2023-04-20T08:09:19.446Z,5300.00
2023-04-20T08:10:19.319Z,5068.00
2023-04-20T08:11:19.279Z,5056.00
2023-04-20T08:12:19.294Z,4588.00
2023-04-20T08:13:19.253Z,4080.00
2023-04-20T08:14:19.702Z,3904.00
2023-04-20T08:15:19.262Z,4512.00
2023-04-20T08:16:19.242Z,5208.00
2023-04-20T08:17:19.271Z,5752.00
2023-04-20T08:18:21.175Z,6072.00
2023-04-20T08:19:19.236Z,6188.00
2023-04-20T08:20:19.222Z,6148.00
2023-04-20T08:21:19.180Z,6864.00
2023-04-20T08:22:19.169Z,7832.00
2023-04-20T08:23:19.182Z,7716.00
2023-04-20T08:24:19.255Z,8160.00
2023-04-20T08:25:19.153Z,8120.00
2023-04-20T08:26:19.228Z,7856.00
2023-04-20T08:27:19.129Z,7856.00
2023-04-20T08:28:32.499Z,6984.00
2023-04-20T08:29:21.098Z,7336.00
2023-04-20T08:30:19.108Z,6844.00
2023-04-20T08:31:19.088Z,6640.00
2023-04-20T08:32:19.075Z,6584.00
2023-04-20T08:33:19.046Z,6584.00
2023-04-20T08:34:19.057Z,7132.00
2023-04-20T08:35:19.041Z,6964.00
2023-04-20T08:36:19.021Z,6416.00
2023-04-20T08:37:19.011Z,6388.00
2023-04-20T08:38:23.721Z,7036.00
2023-04-20T08:39:20.009Z,7172.00
2023-04-20T08:40:18.999Z,6408.00
2023-04-20T08:41:18.974Z,5896.00
2023-04-20T08:42:18.963Z,5964.00
2023-04-20T08:43:20.203Z,5832.00
2023-04-20T08:44:19.003Z,5444.00
2023-04-20T08:45:18.944Z,5148.00
2023-04-20T08:46:19.197Z,5340.00
2023-04-20T08:47:18.912Z,5788.00
2023-04-20T08:48:18.916Z,6400.00
2023-04-20T08:49:18.899Z,6784.00
2023-04-20T08:50:18.910Z,7316.00
2023-04-20T08:51:18.866Z,7784.00
2023-04-20T08:52:18.873Z,8164.00
2023-04-20T08:53:18.864Z,7732.00
2023-04-20T08:54:19.015Z,7764.00
2023-04-20T08:55:18.854Z,7356.00
2023-04-20T08:56:18.815Z,7368.00
2023-04-20T08:57:18.810Z,6712.00
2023-04-20T08:58:18.802Z,7040.00
2023-04-20T08:59:18.788Z,8032.00
2023-04-20T09:00:18.790Z,8376.00
2023-04-20T09:01:25.507Z,7860.00
2023-04-20T09:02:20.903Z,7248.00
2023-04-20T09:03:18.859Z,6596.00
2023-04-20T09:04:19.371Z,6524.00
2023-04-20T09:05:18.797Z,7160.00
2023-04-20T09:06:18.746Z,7608.00
2023-04-20T09:07:18.707Z,7492.00
2023-04-20T09:08:50.583Z,7156.00
2023-04-20T09:09:18.676Z,7520.00
2023-04-20T09:10:18.710Z,7716.00
2023-04-20T09:11:18.661Z,7172.00
2023-04-20T09:12:18.666Z,6952.00
2023-04-20T09:13:18.642Z,6492.00
2023-04-20T09:14:18.920Z,5852.00
2023-04-20T09:15:18.629Z,5948.00
2023-04-20T09:16:18.644Z,6012.00
2023-04-20T09:17:18.607Z,6128.00
2023-04-20T09:18:18.660Z,6184.00
2023-04-20T09:19:18.597Z,5920.00
2023-04-20T09:20:18.610Z,5340.00
2023-04-20T09:21:18.572Z,5724.00
2023-04-20T09:22:18.577Z,6468.00
2023-04-20T09:23:18.552Z,7080.00
2023-04-20T09:24:18.714Z,6968.00
2023-04-20T09:25:18.538Z,6484.00
2023-04-20T09:26:18.572Z,6400.00
2023-04-20T09:27:18.516Z,6156.00
2023-04-20T09:28:18.523Z,6096.00
2023-04-20T09:29:18.483Z,6444.00
2023-04-20T09:30:18.504Z,6788.00
2023-04-20T09:31:18.543Z,7036.00
2023-04-20T09:32:18.573Z,7140.00
2023-04-20T09:33:18.466Z,7352.00
2023-04-20T09:34:18.783Z,7696.00
2023-04-20T09:35:18.505Z,7896.00
2023-04-20T09:36:18.442Z,7852.00
2023-04-20T09:37:18.405Z,7992.00
2023-04-20T09:38:18.407Z,8600.00
2023-04-20T09:39:18.381Z,9464.00
2023-04-20T09:40:18.389Z,9032.00
2023-04-20T09:41:18.369Z,8008.00
2023-04-20T09:42:18.389Z,7624.00
2023-04-20T09:43:18.357Z,7584.00
2023-04-20T09:44:18.621Z,7804.00
2023-04-20T09:45:18.366Z,7400.00
2023-04-20T09:46:18.363Z,7636.00
2023-04-20T09:47:18.329Z,8196.00
2023-04-20T09:48:18.293Z,8640.00
2023-04-20T09:49:18.284Z,8704.00
2023-04-20T09:50:26.637Z,9060.00
2023-04-20T09:51:20.271Z,9584.00
2023-04-20T09:52:18.272Z,9776.00
2023-04-20T09:53:18.257Z,9656.00
2023-04-20T09:54:18.450Z,9768.00
2023-04-20T09:55:18.269Z,10404.00
2023-04-20T09:56:18.244Z,11636.00
2023-04-20T09:57:18.216Z,12192.00
2023-04-20T09:58:18.210Z,12588.00
2023-04-20T09:59:18.185Z,12692.00
2023-04-20T10:00:18.211Z,13784.00
2023-04-20T10:01:18.191Z,16224.00
2023-04-20T10:02:18.269Z,14328.00
2023-04-20T10:03:18.370Z,14432.00
2023-04-20T10:04:18.599Z,13032.00
2023-04-20T10:05:18.381Z,11864.00
2023-04-20T10:06:18.349Z,10708.00
2023-04-20T10:07:18.108Z,10936.00
2023-04-20T10:08:18.132Z,11776.00
2023-04-20T10:09:18.090Z,12600.00
2023-04-20T10:10:18.112Z,13020.00
2023-04-20T10:11:18.067Z,13604.00
2023-04-20T10:12:18.052Z,13704.00
2023-04-20T10:13:18.052Z,13432.00
2023-04-20T10:14:18.205Z,13232.00
2023-04-20T10:15:18.086Z,12760.00
2023-04-20T10:16:18.061Z,12768.00
2023-04-20T10:17:18.185Z,12312.00
2023-04-20T10:18:18.177Z,12916.00
2023-04-20T10:19:17.987Z,12724.00
2023-04-20T10:20:17.998Z,13828.00
2023-04-20T10:21:17.966Z,14184.00
2023-04-20T10:22:18.163Z,13936.00
2023-04-20T10:23:17.953Z,13832.00
2023-04-20T10:24:19.704Z,13660.00
2023-04-20T10:25:17.962Z,13396.00
2023-04-20T10:26:17.919Z,12196.00
2023-04-20T10:27:17.953Z,11356.00
2023-04-20T10:28:17.913Z,10784.00
2023-04-20T10:29:17.904Z,10700.00
2023-04-20T10:30:17.905Z,10312.00
2023-04-20T10:31:17.913Z,10064.00
2023-04-20T10:32:17.865Z,10080.00
2023-04-20T10:33:17.881Z,10928.00
2023-04-20T10:34:18.101Z,11352.00
2023-04-20T10:35:17.839Z,10712.00
2023-04-20T10:36:17.814Z,10268.00
2023-04-20T10:37:17.809Z,9840.00
2023-04-20T10:38:17.873Z,9732.00
2023-04-20T10:39:19.606Z,9496.00
2023-04-20T10:40:18.905Z,9424.00
2023-04-20T10:41:17.771Z,9668.00
2023-04-20T10:42:18.361Z,9740.00
2023-04-20T10:43:18.763Z,9300.00
2023-04-20T10:44:17.937Z,8868.00
2023-04-20T10:45:17.817Z,9332.00
2023-04-20T10:46:17.770Z,9752.00
2023-04-20T10:47:17.714Z,10192.00
2023-04-20T10:48:18.318Z,10788.00
2023-04-20T10:49:17.839Z,11456.00
2023-04-20T10:50:17.766Z,11908.00
2023-04-20T10:51:17.678Z,11980.00
2023-04-20T10:52:17.670Z,11756.00
2023-04-20T10:53:17.649Z,11752.00
2023-04-20T10:54:18.419Z,12744.00
2023-04-20T10:55:18.648Z,12412.00
2023-04-20T10:56:17.633Z,12180.00
2023-04-20T10:57:17.609Z,11996.00
2023-04-20T10:58:17.604Z,11636.00
2023-04-20T10:59:17.989Z,11896.00
2023-04-20T11:00:17.638Z,11680.00
2023-04-20T11:01:17.621Z,11548.00
2023-04-20T11:02:17.725Z,12072.00
2023-04-20T11:03:17.648Z,13044.00
2023-04-20T11:04:19.027Z,13336.00
2023-04-20T11:05:18.634Z,14068.00
2023-04-20T11:06:17.520Z,13544.00
2023-04-20T11:07:17.515Z,14256.00
2023-04-20T11:08:17.503Z,17024.00
2023-04-20T11:09:17.666Z,15712.00
2023-04-20T11:10:17.514Z,15196.00
2023-04-20T11:11:17.468Z,14556.00
2023-04-20T11:12:17.465Z,14200.00
2023-04-20T11:13:17.452Z,14164.00
2023-04-20T11:14:17.436Z,13936.00
2023-04-20T11:15:17.449Z,15616.00
2023-04-20T11:16:17.464Z,16448.00
2023-04-20T11:17:17.486Z,16896.00
2023-04-20T11:18:17.463Z,17664.00
2023-04-20T11:19:17.667Z,17568.00
2023-04-20T11:20:17.448Z,17216.00
2023-04-20T11:21:17.433Z,16544.00
2023-04-20T11:22:17.362Z,13528.00
2023-04-20T11:23:17.390Z,14880.00
2023-04-20T11:24:17.327Z,15168.00
2023-04-20T11:25:17.341Z,15584.00
2023-04-20T11:26:17.313Z,14744.00
2023-04-20T11:27:17.333Z,16544.00
2023-04-20T11:28:17.287Z,14908.00
2023-04-20T11:29:17.577Z,16384.00
2023-04-20T11:30:17.318Z,14428.00
2023-04-20T11:31:17.335Z,15336.00
2023-04-20T11:32:17.363Z,16576.00
2023-04-20T11:33:17.323Z,15012.00
2023-04-20T11:34:17.226Z,16128.00
2023-04-20T11:35:17.252Z,13376.00
2023-04-20T11:36:17.217Z,15936.00
2023-04-20T11:37:17.201Z,16192.00
2023-04-20T11:38:17.197Z,16128.00
2023-04-20T11:39:17.280Z,16416.00
2023-04-20T11:40:17.260Z,15872.00
2023-04-20T11:41:17.183Z,14412.00
2023-04-20T11:42:17.233Z,16832.00
2023-04-20T11:43:17.144Z,17664.00
2023-04-20T11:44:17.163Z,16000.00
2023-04-20T11:45:17.140Z,15520.00
2023-04-20T11:46:17.254Z,17152.00
2023-04-20T11:47:17.115Z,18016.00
2023-04-20T11:48:17.095Z,15616.00
2023-04-20T11:49:17.282Z,13848.00
2023-04-20T11:50:17.096Z,13508.00
2023-04-20T11:51:17.064Z,13328.00
2023-04-20T11:52:17.053Z,13124.00
2023-04-20T11:53:17.051Z,13556.00
2023-04-20T11:54:17.035Z,13804.00
2023-04-20T11:55:17.046Z,13732.00
2023-04-20T11:56:17.027Z,13608.00
2023-04-20T11:57:17.000Z,13488.00
2023-04-20T11:58:17.067Z,15744.00
2023-04-20T11:59:17.327Z,12944.00
2023-04-20T12:00:16.989Z,12176.00
2023-04-20T12:01:16.989Z,11780.00
2023-04-20T12:02:17.040Z,12332.00
2023-04-20T12:03:17.105Z,12608.00
2023-04-20T12:04:17.348Z,13004.00
2023-04-20T12:05:17.101Z,14188.00
2023-04-20T12:06:16.906Z,13852.00
2023-04-20T12:07:16.927Z,14264.00
2023-04-20T12:08:16.903Z,14496.00
2023-04-20T12:09:17.061Z,14164.00
2023-04-20T12:10:16.889Z,13316.00
2023-04-20T12:11:16.872Z,11132.00
2023-04-20T12:12:16.853Z,8996.00
2023-04-20T12:13:16.837Z,7560.00
2023-04-20T12:14:16.902Z,6868.00
2023-04-20T12:15:16.832Z,6592.00
2023-04-20T12:16:16.835Z,6768.00
2023-04-20T12:17:16.787Z,7080.00
2023-04-20T12:18:16.788Z,7600.00
2023-04-20T12:19:17.312Z,8580.00
2023-04-20T12:20:16.786Z,9908.00
2023-04-20T12:21:16.758Z,10868.00
2023-04-20T12:22:16.753Z,12156.00
2023-04-20T12:23:16.748Z,13232.00
2023-04-20T12:24:16.758Z,14092.00
2023-04-20T12:25:16.734Z,14988.00
2023-04-20T12:26:16.724Z,18240.00